sensor_id;sensor_type;location;lat;lon;timestamp;pressure;altitude;pressure_sealevel;temperature;humidity
27144;BME280;14672;50.250;8.312;2023-04-22T00:00:01;98165.78;;;14.51;63.84
27144;BME280;14672;50.250;8.312;2023-04-22T00:02:27;98165.22;;;14.47;64.52
27144;BME280;14672;50.250;8.312;2023-04-22T00:04:53;98156.41;;;14.50;64.10
27144;BME280;14672;50.250;8.312;2023-04-22T00:07:21;98163.41;;;14.49;63.81
27144;BME280;14672;50.250;8.312;2023-04-22T00:09:48;98159.56;;;14.52;63.63
27144;BME280;14672;50.250;8.312;2023-04-22T00:12:14;98161.44;;;14.61;63.12
27144;BME280;14672;50.250;8.312;2023-04-22T00:14:40;98152.06;;;14.55;63.14
27144;BME280;14672;50.250;8.312;2023-04-22T00:17:06;98151.25;;;14.54;62.79
27144;BME280;14672;50.250;8.312;2023-04-22T00:19:32;98154.75;;;14.64;62.97
27144;BME280;14672;50.250;8.312;2023-04-22T00:21:58;98155.59;;;14.70;62.83
27144;BME280;14672;50.250;8.312;2023-04-22T00:24:24;98149.81;;;14.65;63.01
27144;BME280;14672;50.250;8.312;2023-04-22T00:26:50;98156.59;;;14.67;63.02
27144;BME280;14672;50.250;8.312;2023-04-22T00:29:15;98152.38;;;14.63;62.65
27144;BME280;14672;50.250;8.312;2023-04-22T00:31:41;98149.59;;;14.68;62.78
27144;BME280;14672;50.250;8.312;2023-04-22T00:34:07;98152.88;;;14.61;62.83
27144;BME280;14672;50.250;8.312;2023-04-22T00:36:33;98151.38;;;14.66;62.48
27144;BME280;14672;50.250;8.312;2023-04-22T00:38:58;98156.69;;;14.78;62.49
27144;BME280;14672;50.250;8.312;2023-04-22T00:41:24;98162.41;;;14.78;62.60
27144;BME280;14672;50.250;8.312;2023-04-22T00:43:52;98147.09;;;14.81;62.37
27144;BME280;14672;50.250;8.312;2023-04-22T00:46:19;98152.25;;;14.77;62.72
27144;BME280;14672;50.250;8.312;2023-04-22T00:48:45;98152.06;;;14.81;62.20
27144;BME280;14672;50.250;8.312;2023-04-22T00:51:11;98149.47;;;14.83;62.58
27144;BME280;14672;50.250;8.312;2023-04-22T00:53:37;98158.06;;;14.83;62.67
27144;BME280;14672;50.250;8.312;2023-04-22T00:56:03;98168.69;;;14.82;62.43
27144;BME280;14672;50.250;8.312;2023-04-22T00:58:29;98159.91;;;14.86;62.44
27144;BME280;14672;50.250;8.312;2023-04-22T01:00:56;98153.94;;;14.89;62.25
27144;BME280;14672;50.250;8.312;2023-04-22T01:03:22;98159.09;;;14.85;62.43
27144;BME280;14672;50.250;8.312;2023-04-22T01:05:49;98156.88;;;14.95;61.68
27144;BME280;14672;50.250;8.312;2023-04-22T01:08:15;98148.34;;;15.00;61.81
27144;BME280;14672;50.250;8.312;2023-04-22T01:10:42;98152.97;;;14.92;61.64
27144;BME280;14672;50.250;8.312;2023-04-22T01:13:08;98151.41;;;14.97;61.88
27144;BME280;14672;50.250;8.312;2023-04-22T01:15:35;98152.75;;;15.01;61.73
27144;BME280;14672;50.250;8.312;2023-04-22T01:18:01;98157.38;;;14.93;62.07
27144;BME280;14672;50.250;8.312;2023-04-22T01:20:28;98161.25;;;14.90;61.75
27144;BME280;14672;50.250;8.312;2023-04-22T01:22:55;98149.56;;;14.94;61.63
27144;BME280;14672;50.250;8.312;2023-04-22T01:25:24;98149.63;;;14.99;60.97
27144;BME280;14672;50.250;8.312;2023-04-22T01:27:51;98154.25;;;14.91;61.32
27144;BME280;14672;50.250;8.312;2023-04-22T01:30:17;98156.63;;;14.98;61.04
27144;BME280;14672;50.250;8.312;2023-04-22T01:32:44;98153.59;;;15.08;60.83
27144;BME280;14672;50.250;8.312;2023-04-22T01:35:10;98155.91;;;15.03;61.00
27144;BME280;14672;50.250;8.312;2023-04-22T01:37:36;98161.34;;;15.01;60.88
27144;BME280;14672;50.250;8.312;2023-04-22T01:40:03;98160.84;;;15.03;60.83
27144;BME280;14672;50.250;8.312;2023-04-22T01:42:32;98163.22;;;15.04;60.65
27144;BME280;14672;50.250;8.312;2023-04-22T01:44:58;98158.25;;;15.05;60.74
27144;BME280;14672;50.250;8.312;2023-04-22T01:47:24;98163.69;;;15.03;61.04
27144;BME280;14672;50.250;8.312;2023-04-22T01:49:52;98164.94;;;14.96;61.24
27144;BME280;14672;50.250;8.312;2023-04-22T01:52:17;98169.19;;;15.07;60.80
27144;BME280;14672;50.250;8.312;2023-04-22T01:54:43;98162.97;;;15.08;60.82
27144;BME280;14672;50.250;8.312;2023-04-22T01:57:11;98157.97;;;15.03;60.79
27144;BME280;14672;50.250;8.312;2023-04-22T01:59:39;98152.03;;;15.07;60.78
27144;BME280;14672;50.250;8.312;2023-04-22T02:02:05;98156.97;;;15.06;60.84
27144;BME280;14672;50.250;8.312;2023-04-22T02:04:31;98161.09;;;15.05;60.93
27144;BME280;14672;50.250;8.312;2023-04-22T02:06:57;98160.38;;;15.10;60.49
27144;BME280;14672;50.250;8.312;2023-04-22T02:09:23;98160.94;;;15.14;60.55
27144;BME280;14672;50.250;8.312;2023-04-22T02:11:49;98165.94;;;15.19;60.18
27144;BME280;14672;50.250;8.312;2023-04-22T02:14:15;98162.78;;;15.17;60.25
27144;BME280;14672;50.250;8.312;2023-04-22T02:16:41;98152.50;;;14.99;62.55
27144;BME280;14672;50.250;8.312;2023-04-22T02:19:07;98156.25;;;14.85;63.14
27144;BME280;14672;50.250;8.312;2023-04-22T02:21:33;98154.97;;;14.86;62.95
27144;BME280;14672;50.250;8.312;2023-04-22T02:23:59;98146.84;;;14.79;63.35
27144;BME280;14672;50.250;8.312;2023-04-22T02:26:25;98145.03;;;14.82;62.69
27144;BME280;14672;50.250;8.312;2023-04-22T02:28:51;98141.50;;;14.67;64.33
27144;BME280;14672;50.250;8.312;2023-04-22T02:31:17;98148.69;;;14.56;64.52
27144;BME280;14672;50.250;8.312;2023-04-22T02:33:43;98145.28;;;14.52;64.66
27144;BME280;14672;50.250;8.312;2023-04-22T02:36:09;98144.94;;;14.45;65.01
27144;BME280;14672;50.250;8.312;2023-04-22T02:38:37;98150.09;;;14.41;64.90
27144;BME280;14672;50.250;8.312;2023-04-22T02:41:03;98150.56;;;14.39;64.91
27144;BME280;14672;50.250;8.312;2023-04-22T02:43:28;98153.66;;;14.36;64.96
27144;BME280;14672;50.250;8.312;2023-04-22T02:45:54;98150.81;;;14.36;64.74
27144;BME280;14672;50.250;8.312;2023-04-22T02:48:26;98152.28;;;14.31;65.40
27144;BME280;14672;50.250;8.312;2023-04-22T02:50:58;98149.84;;;14.24;65.44
27144;BME280;14672;50.250;8.312;2023-04-22T02:53:24;98156.59;;;14.21;65.24
27144;BME280;14672;50.250;8.312;2023-04-22T02:55:49;98153.22;;;14.23;65.42
27144;BME280;14672;50.250;8.312;2023-04-22T02:58:16;98154.44;;;14.16;65.83
27144;BME280;14672;50.250;8.312;2023-04-22T03:00:42;98150.06;;;14.21;65.61
27144;BME280;14672;50.250;8.312;2023-04-22T03:03:08;98146.66;;;14.17;66.04
27144;BME280;14672;50.250;8.312;2023-04-22T03:05:35;98149.44;;;14.11;66.15
27144;BME280;14672;50.250;8.312;2023-04-22T03:08:00;98148.94;;;14.13;65.93
27144;BME280;14672;50.250;8.312;2023-04-22T03:10:26;98144.72;;;14.08;66.38
27144;BME280;14672;50.250;8.312;2023-04-22T03:12:52;98146.31;;;14.09;66.23
27144;BME280;14672;50.250;8.312;2023-04-22T03:15:17;98144.72;;;14.08;65.92
27144;BME280;14672;50.250;8.312;2023-04-22T03:17:43;98153.50;;;14.04;66.07
27144;BME280;14672;50.250;8.312;2023-04-22T03:20:09;98142.78;;;13.99;66.41
27144;BME280;14672;50.250;8.312;2023-04-22T03:22:36;98135.50;;;13.98;66.24
27144;BME280;14672;50.250;8.312;2023-04-22T03:25:02;98138.34;;;13.98;66.44
27144;BME280;14672;50.250;8.312;2023-04-22T03:27:28;98137.00;;;13.94;66.29
27144;BME280;14672;50.250;8.312;2023-04-22T03:29:53;98146.66;;;13.96;66.16
27144;BME280;14672;50.250;8.312;2023-04-22T03:32:19;98140.94;;;13.96;66.37
27144;BME280;14672;50.250;8.312;2023-04-22T03:34:45;98140.06;;;13.90;66.18
27144;BME280;14672;50.250;8.312;2023-04-22T03:37:11;98131.50;;;13.90;66.02
27144;BME280;14672;50.250;8.312;2023-04-22T03:39:36;98134.78;;;13.83;66.29
27144;BME280;14672;50.250;8.312;2023-04-22T03:42:02;98127.22;;;13.80;66.24
27144;BME280;14672;50.250;8.312;2023-04-22T03:44:28;98135.22;;;13.76;66.36
27144;BME280;14672;50.250;8.312;2023-04-22T03:46:54;98133.66;;;13.75;65.99
27144;BME280;14672;50.250;8.312;2023-04-22T03:49:20;98134.44;;;13.76;66.15
27144;BME280;14672;50.250;8.312;2023-04-22T03:51:45;98135.22;;;13.76;65.79
27144;BME280;14672;50.250;8.312;2023-04-22T03:54:11;98130.50;;;13.73;65.68
27144;BME280;14672;50.250;8.312;2023-04-22T03:56:37;98125.28;;;13.72;66.00
27144;BME280;14672;50.250;8.312;2023-04-22T03:59:03;98125.88;;;13.76;65.51
27144;BME280;14672;50.250;8.312;2023-04-22T04:01:28;98139.34;;;13.75;65.43
27144;BME280;14672;50.250;8.312;2023-04-22T04:03:54;98134.66;;;13.72;65.61
27144;BME280;14672;50.250;8.312;2023-04-22T04:06:20;98124.44;;;13.86;64.45
27144;BME280;14672;50.250;8.312;2023-04-22T04:08:46;98134.72;;;13.78;64.88
27144;BME280;14672;50.250;8.312;2023-04-22T04:11:12;98123.28;;;13.78;64.86
27144;BME280;14672;50.250;8.312;2023-04-22T04:13:37;98128.38;;;13.88;64.07
27144;BME280;14672;50.250;8.312;2023-04-22T04:16:03;98124.16;;;13.84;64.23
27144;BME280;14672;50.250;8.312;2023-04-22T04:18:29;98121.38;;;13.89;63.70
27144;BME280;14672;50.250;8.312;2023-04-22T04:20:55;98123.09;;;13.81;64.43
27144;BME280;14672;50.250;8.312;2023-04-22T04:23:21;98111.09;;;13.77;64.76
27144;BME280;14672;50.250;8.312;2023-04-22T04:25:48;98116.53;;;13.75;64.70
27144;BME280;14672;50.250;8.312;2023-04-22T04:28:14;98108.53;;;13.79;64.73
27144;BME280;14672;50.250;8.312;2023-04-22T04:30:42;98106.09;;;13.92;63.20
27144;BME280;14672;50.250;8.312;2023-04-22T04:33:07;98114.59;;;14.07;62.57
27144;BME280;14672;50.250;8.312;2023-04-22T04:35:35;98121.72;;;14.17;61.91
27144;BME280;14672;50.250;8.312;2023-04-22T04:38:04;98109.78;;;14.19;61.65
27144;BME280;14672;50.250;8.312;2023-04-22T04:40:31;98118.69;;;14.26;61.26
27144;BME280;14672;50.250;8.312;2023-04-22T04:42:57;98127.63;;;14.34;61.10
27144;BME280;14672;50.250;8.312;2023-04-22T04:45:23;98118.59;;;14.35;61.04
27144;BME280;14672;50.250;8.312;2023-04-22T04:47:49;98113.13;;;14.37;60.57
27144;BME280;14672;50.250;8.312;2023-04-22T04:50:17;98117.41;;;14.47;60.22
27144;BME280;14672;50.250;8.312;2023-04-22T04:52:48;98119.22;;;14.45;60.38
27144;BME280;14672;50.250;8.312;2023-04-22T04:55:15;98118.66;;;14.41;60.14
27144;BME280;14672;50.250;8.312;2023-04-22T04:57:43;98105.50;;;14.49;60.21
27144;BME280;14672;50.250;8.312;2023-04-22T05:00:10;98104.06;;;14.39;60.42
27144;BME280;14672;50.250;8.312;2023-04-22T05:02:36;98115.03;;;14.46;60.36
27144;BME280;14672;50.250;8.312;2023-04-22T05:05:02;98100.81;;;14.51;60.13
27144;BME280;14672;50.250;8.312;2023-04-22T05:07:29;98105.06;;;14.62;60.05
27144;BME280;14672;50.250;8.312;2023-04-22T05:09:55;98101.16;;;14.59;60.04
27144;BME280;14672;50.250;8.312;2023-04-22T05:12:20;98099.47;;;14.73;59.47
27144;BME280;14672;50.250;8.312;2023-04-22T05:14:46;98100.69;;;14.66;59.84
27144;BME280;14672;50.250;8.312;2023-04-22T05:17:12;98106.38;;;14.61;59.54
27144;BME280;14672;50.250;8.312;2023-04-22T05:19:39;98108.31;;;14.75;59.75
27144;BME280;14672;50.250;8.312;2023-04-22T05:22:06;98120.22;;;14.68;59.99
27144;BME280;14672;50.250;8.312;2023-04-22T05:24:32;98123.66;;;14.77;59.50
27144;BME280;14672;50.250;8.312;2023-04-22T05:26:58;98129.22;;;14.86;59.53
27144;BME280;14672;50.250;8.312;2023-04-22T05:29:25;98136.78;;;14.89;59.15
27144;BME280;14672;50.250;8.312;2023-04-22T05:31:51;98136.22;;;14.85;59.13
27144;BME280;14672;50.250;8.312;2023-04-22T05:34:17;98148.22;;;14.89;59.05
27144;BME280;14672;50.250;8.312;2023-04-22T05:36:43;98152.97;;;14.92;59.15
27144;BME280;14672;50.250;8.312;2023-04-22T05:39:08;98150.44;;;15.05;59.01
27144;BME280;14672;50.250;8.312;2023-04-22T05:41:34;98141.44;;;15.13;59.05
27144;BME280;14672;50.250;8.312;2023-04-22T05:44:00;98146.63;;;15.14;59.23
27144;BME280;14672;50.250;8.312;2023-04-22T05:46:26;98142.50;;;15.21;59.06
27144;BME280;14672;50.250;8.312;2023-04-22T05:48:52;98150.88;;;15.24;59.15
27144;BME280;14672;50.250;8.312;2023-04-22T05:51:19;98136.06;;;15.26;59.23
27144;BME280;14672;50.250;8.312;2023-04-22T05:53:45;98145.19;;;15.30;59.25
27144;BME280;14672;50.250;8.312;2023-04-22T05:56:10;98144.72;;;15.37;58.67
27144;BME280;14672;50.250;8.312;2023-04-22T05:58:36;98151.78;;;15.41;59.01
27144;BME280;14672;50.250;8.312;2023-04-22T06:01:02;98155.78;;;15.49;58.70
27144;BME280;14672;50.250;8.312;2023-04-22T06:03:28;98150.84;;;15.50;58.67
27144;BME280;14672;50.250;8.312;2023-04-22T06:05:54;98152.97;;;15.61;58.63
27144;BME280;14672;50.250;8.312;2023-04-22T06:08:20;98148.34;;;15.63;58.62
27144;BME280;14672;50.250;8.312;2023-04-22T06:10:46;98154.06;;;15.63;58.53
27144;BME280;14672;50.250;8.312;2023-04-22T06:13:12;98154.41;;;15.76;58.35
27144;BME280;14672;50.250;8.312;2023-04-22T06:15:38;98150.47;;;15.68;58.70
27144;BME280;14672;50.250;8.312;2023-04-22T06:18:04;98138.06;;;15.88;58.26
27144;BME280;14672;50.250;8.312;2023-04-22T06:20:30;98139.91;;;15.91;57.84
27144;BME280;14672;50.250;8.312;2023-04-22T06:22:57;98132.09;;;15.97;58.28
27144;BME280;14672;50.250;8.312;2023-04-22T06:25:23;98125.34;;;15.94;58.14
27144;BME280;14672;50.250;8.312;2023-04-22T06:27:49;98132.19;;;16.08;57.87
27144;BME280;14672;50.250;8.312;2023-04-22T06:30:15;98129.56;;;16.10;57.60
27144;BME280;14672;50.250;8.312;2023-04-22T06:32:41;98127.53;;;16.16;57.73
27144;BME280;14672;50.250;8.312;2023-04-22T06:35:07;98124.94;;;16.29;57.31
27144;BME280;14672;50.250;8.312;2023-04-22T06:37:33;98127.84;;;16.35;57.22
27144;BME280;14672;50.250;8.312;2023-04-22T06:39:59;98125.97;;;16.26;57.83
27144;BME280;14672;50.250;8.312;2023-04-22T06:42:25;98126.56;;;16.41;57.26
27144;BME280;14672;50.250;8.312;2023-04-22T06:44:50;98121.84;;;16.38;56.81
27144;BME280;14672;50.250;8.312;2023-04-22T06:47:16;98116.41;;;16.46;56.94
27144;BME280;14672;50.250;8.312;2023-04-22T06:49:42;98120.06;;;16.47;56.75
27144;BME280;14672;50.250;8.312;2023-04-22T06:52:09;98122.19;;;16.57;56.91
27144;BME280;14672;50.250;8.312;2023-04-22T06:54:35;98128.19;;;16.65;57.25
27144;BME280;14672;50.250;8.312;2023-04-22T06:57:01;98122.75;;;16.67;57.26
27144;BME280;14672;50.250;8.312;2023-04-22T06:59:27;98120.91;;;16.69;56.74
27144;BME280;14672;50.250;8.312;2023-04-22T07:01:53;98120.41;;;16.76;56.87
27144;BME280;14672;50.250;8.312;2023-04-22T07:04:19;98122.50;;;16.81;57.03
27144;BME280;14672;50.250;8.312;2023-04-22T07:06:44;98111.78;;;16.76;57.44
27144;BME280;14672;50.250;8.312;2023-04-22T07:09:10;98118.31;;;16.88;57.27
27144;BME280;14672;50.250;8.312;2023-04-22T07:11:36;98130.84;;;16.96;56.87
27144;BME280;14672;50.250;8.312;2023-04-22T07:14:02;98132.69;;;16.99;57.04
27144;BME280;14672;50.250;8.312;2023-04-22T07:16:28;98122.78;;;17.06;56.65
27144;BME280;14672;50.250;8.312;2023-04-22T07:18:54;98128.53;;;17.06;56.83
27144;BME280;14672;50.250;8.312;2023-04-22T07:21:20;98127.22;;;17.12;56.85
27144;BME280;14672;50.250;8.312;2023-04-22T07:23:45;98113.38;;;17.22;57.04
27144;BME280;14672;50.250;8.312;2023-04-22T07:26:11;98121.47;;;17.29;56.69
27144;BME280;14672;50.250;8.312;2023-04-22T07:28:37;98110.78;;;17.29;56.41
27144;BME280;14672;50.250;8.312;2023-04-22T07:31:03;98120.41;;;17.37;56.77
27144;BME280;14672;50.250;8.312;2023-04-22T07:33:29;98106.84;;;17.32;55.21
27144;BME280;14672;50.250;8.312;2023-04-22T07:35:55;98119.09;;;17.44;55.66
27144;BME280;14672;50.250;8.312;2023-04-22T07:38:20;98110.22;;;17.53;55.46
27144;BME280;14672;50.250;8.312;2023-04-22T07:40:46;98099.53;;;17.43;55.19
27144;BME280;14672;50.250;8.312;2023-04-22T07:43:12;98105.53;;;17.61;54.72
27144;BME280;14672;50.250;8.312;2023-04-22T07:45:38;98106.84;;;17.66;54.07
27144;BME280;14672;50.250;8.312;2023-04-22T07:48:04;98100.03;;;17.69;54.42
27144;BME280;14672;50.250;8.312;2023-04-22T07:50:29;98105.22;;;17.81;54.40
27144;BME280;14672;50.250;8.312;2023-04-22T07:52:55;98104.94;;;17.79;54.08
27144;BME280;14672;50.250;8.312;2023-04-22T07:55:21;98099.72;;;17.83;53.84
27144;BME280;14672;50.250;8.312;2023-04-22T07:57:47;98102.06;;;17.91;53.46
27144;BME280;14672;50.250;8.312;2023-04-22T08:00:13;98089.97;;;18.09;54.29
27144;BME280;14672;50.250;8.312;2023-04-22T08:02:39;98094.66;;;18.12;54.26
27144;BME280;14672;50.250;8.312;2023-04-22T08:05:06;98100.88;;;18.21;53.50
27144;BME280;14672;50.250;8.312;2023-04-22T08:07:32;98095.16;;;18.16;53.99
27144;BME280;14672;50.250;8.312;2023-04-22T08:09:58;98095.13;;;18.27;54.09
27144;BME280;14672;50.250;8.312;2023-04-22T08:12:24;98095.88;;;18.33;54.20
27144;BME280;14672;50.250;8.312;2023-04-22T08:14:49;98085.38;;;18.36;53.39
27144;BME280;14672;50.250;8.312;2023-04-22T08:17:15;98086.66;;;18.40;53.08
27144;BME280;14672;50.250;8.312;2023-04-22T08:19:41;98081.94;;;18.54;53.43
27144;BME280;14672;50.250;8.312;2023-04-22T08:22:06;98091.28;;;18.60;54.64
27144;BME280;14672;50.250;8.312;2023-04-22T08:24:32;98088.66;;;18.62;54.81
27144;BME280;14672;50.250;8.312;2023-04-22T08:26:58;98090.69;;;18.72;54.20
27144;BME280;14672;50.250;8.312;2023-04-22T08:29:24;98077.88;;;18.73;53.26
27144;BME280;14672;50.250;8.312;2023-04-22T08:31:49;98081.75;;;18.76;53.13
27144;BME280;14672;50.250;8.312;2023-04-22T08:34:15;98087.72;;;18.84;52.50
27144;BME280;14672;50.250;8.312;2023-04-22T08:36:41;98084.00;;;18.94;53.21
27144;BME280;14672;50.250;8.312;2023-04-22T08:39:07;98092.25;;;19.09;53.29
27144;BME280;14672;50.250;8.312;2023-04-22T08:41:34;98085.13;;;19.15;53.19
27144;BME280;14672;50.250;8.312;2023-04-22T08:44:00;98086.16;;;19.18;53.00
27144;BME280;14672;50.250;8.312;2023-04-22T08:46:29;98086.00;;;19.05;51.72
27144;BME280;14672;50.250;8.312;2023-04-22T08:48:56;98092.63;;;19.24;51.81
27144;BME280;14672;50.250;8.312;2023-04-22T08:51:27;98082.34;;;19.34;52.26
27144;BME280;14672;50.250;8.312;2023-04-22T08:53:53;98090.91;;;19.40;51.81
27144;BME280;14672;50.250;8.312;2023-04-22T08:56:19;98092.75;;;19.43;51.15
27144;BME280;14672;50.250;8.312;2023-04-22T08:58:46;98086.97;;;19.43;51.18
27144;BME280;14672;50.250;8.312;2023-04-22T09:01:13;98080.19;;;19.40;51.31
27144;BME280;14672;50.250;8.312;2023-04-22T09:03:40;98091.03;;;19.58;51.00
27144;BME280;14672;50.250;8.312;2023-04-22T09:06:07;98091.44;;;19.68;51.64
27144;BME280;14672;50.250;8.312;2023-04-22T09:08:35;98081.50;;;19.69;51.80
27144;BME280;14672;50.250;8.312;2023-04-22T09:11:02;98076.75;;;19.72;50.92
27144;BME280;14672;50.250;8.312;2023-04-22T09:13:28;98075.59;;;19.80;51.19
27144;BME280;14672;50.250;8.312;2023-04-22T09:15:54;98071.28;;;19.68;50.62
27144;BME280;14672;50.250;8.312;2023-04-22T09:18:20;98064.53;;;19.84;51.00
27144;BME280;14672;50.250;8.312;2023-04-22T09:20:47;98076.97;;;19.98;51.39
27144;BME280;14672;50.250;8.312;2023-04-22T09:23:13;98073.16;;;19.90;49.88
27144;BME280;14672;50.250;8.312;2023-04-22T09:25:40;98073.53;;;19.99;50.88
27144;BME280;14672;50.250;8.312;2023-04-22T09:28:11;98085.31;;;20.01;50.24
27144;BME280;14672;50.250;8.312;2023-04-22T09:30:37;98073.31;;;19.97;49.55
27144;BME280;14672;50.250;8.312;2023-04-22T09:33:06;98076.91;;;20.03;49.55
27144;BME280;14672;50.250;8.312;2023-04-22T09:35:37;98087.25;;;19.93;49.22
27144;BME280;14672;50.250;8.312;2023-04-22T09:38:07;98083.22;;;20.02;48.88
27144;BME280;14672;50.250;8.312;2023-04-22T09:40:35;98084.75;;;20.03;48.97
27144;BME280;14672;50.250;8.312;2023-04-22T09:43:04;98082.91;;;20.05;48.79
27144;BME280;14672;50.250;8.312;2023-04-22T09:45:41;98082.47;;;20.20;50.19
27144;BME280;14672;50.250;8.312;2023-04-22T09:48:08;98075.38;;;20.21;49.66
27144;BME280;14672;50.250;8.312;2023-04-22T09:50:35;98081.84;;;20.27;50.02
27144;BME280;14672;50.250;8.312;2023-04-22T09:53:11;98072.63;;;20.34;51.04
27144;BME280;14672;50.250;8.312;2023-04-22T09:55:50;98082.97;;;20.43;50.50
27144;BME280;14672;50.250;8.312;2023-04-22T09:58:19;98074.00;;;20.46;50.50
27144;BME280;14672;50.250;8.312;2023-04-22T10:00:53;98071.81;;;20.52;49.87
27144;BME280;14672;50.250;8.312;2023-04-22T10:03:19;98070.88;;;20.63;50.01
27144;BME280;14672;50.250;8.312;2023-04-22T10:05:45;98071.34;;;20.67;49.53
27144;BME280;14672;50.250;8.312;2023-04-22T10:08:13;98063.06;;;20.77;49.33
27144;BME280;14672;50.250;8.312;2023-04-22T10:10:40;98062.28;;;20.76;49.71
27144;BME280;14672;50.250;8.312;2023-04-22T10:13:06;98064.91;;;20.74;49.33
27144;BME280;14672;50.250;8.312;2023-04-22T10:15:38;98056.47;;;20.95;49.18
27144;BME280;14672;50.250;8.312;2023-04-22T10:18:10;98067.69;;;20.98;48.44
27144;BME280;14672;50.250;8.312;2023-04-22T10:20:41;98064.06;;;21.11;48.69
27144;BME280;14672;50.250;8.312;2023-04-22T10:23:17;98058.50;;;21.00;47.99
27144;BME280;14672;50.250;8.312;2023-04-22T10:25:47;98065.72;;;21.06;47.69
27144;BME280;14672;50.250;8.312;2023-04-22T10:28:17;98058.88;;;21.09;48.67
27144;BME280;14672;50.250;8.312;2023-04-22T10:30:43;98052.81;;;21.26;49.35
27144;BME280;14672;50.250;8.312;2023-04-22T10:41:34;98044.84;;;21.32;49.11
27144;BME280;14672;50.250;8.312;2023-04-22T10:44:07;98037.28;;;21.42;46.99
27144;BME280;14672;50.250;8.312;2023-04-22T10:49:08;98036.09;;;21.77;48.36
27144;BME280;14672;50.250;8.312;2023-04-22T10:51:41;98032.19;;;21.75;47.42
27144;BME280;14672;50.250;8.312;2023-04-22T10:57:19;98022.00;;;22.00;48.05
27144;BME280;14672;50.250;8.312;2023-04-22T10:59:54;98020.63;;;22.14;47.66
27144;BME280;14672;50.250;8.312;2023-04-22T11:02:23;98016.84;;;22.19;46.59
27144;BME280;14672;50.250;8.312;2023-04-22T11:04:50;98020.31;;;22.52;45.92
27144;BME280;14672;50.250;8.312;2023-04-22T11:15:14;98007.53;;;22.47;42.29
27144;BME280;14672;50.250;8.312;2023-04-22T11:17:50;98020.19;;;22.91;43.13
27144;BME280;14672;50.250;8.312;2023-04-22T11:20:17;98012.22;;;23.05;42.63
27144;BME280;14672;50.250;8.312;2023-04-22T11:22:55;98012.56;;;23.22;42.68
27144;BME280;14672;50.250;8.312;2023-04-22T11:25:23;98007.19;;;23.26;41.82
27144;BME280;14672;50.250;8.312;2023-04-22T11:27:49;98006.06;;;23.29;41.98
27144;BME280;14672;50.250;8.312;2023-04-22T11:30:18;98010.56;;;23.37;41.50
27144;BME280;14672;50.250;8.312;2023-04-22T11:32:49;98008.59;;;23.32;40.54
27144;BME280;14672;50.250;8.312;2023-04-22T11:35:18;98005.84;;;23.48;39.76
27144;BME280;14672;50.250;8.312;2023-04-22T11:37:54;98008.38;;;23.51;39.65
27144;BME280;14672;50.250;8.312;2023-04-22T11:40:33;98011.78;;;23.70;40.58
27144;BME280;14672;50.250;8.312;2023-04-22T11:43:02;98013.31;;;23.64;39.37
27144;BME280;14672;50.250;8.312;2023-04-22T11:45:30;98009.19;;;23.88;39.40
27144;BME280;14672;50.250;8.312;2023-04-22T11:47:57;98001.66;;;24.20;40.32
27144;BME280;14672;50.250;8.312;2023-04-22T11:50:38;97996.63;;;24.21;41.32
27144;BME280;14672;50.250;8.312;2023-04-22T11:53:19;97987.59;;;24.32;39.33
27144;BME280;14672;50.250;8.312;2023-04-22T11:55:48;97997.72;;;24.10;38.60
27144;BME280;14672;50.250;8.312;2023-04-22T11:58:26;97990.84;;;24.28;38.94
27144;BME280;14672;50.250;8.312;2023-04-22T12:00:54;97987.81;;;24.42;38.90
27144;BME280;14672;50.250;8.312;2023-04-22T12:03:25;97999.66;;;24.59;40.22
27144;BME280;14672;50.250;8.312;2023-04-22T12:05:58;97989.41;;;24.65;39.86
27144;BME280;14672;50.250;8.312;2023-04-22T12:08:35;97996.06;;;24.89;38.81
27144;BME280;14672;50.250;8.312;2023-04-22T12:11:04;97994.09;;;24.76;38.63
27144;BME280;14672;50.250;8.312;2023-04-22T12:13:39;97995.22;;;24.58;38.12
27144;BME280;14672;50.250;8.312;2023-04-22T12:16:18;97991.31;;;24.48;37.69
27144;BME280;14672;50.250;8.312;2023-04-22T12:18:49;97995.84;;;24.79;38.51
27144;BME280;14672;50.250;8.312;2023-04-22T12:21:21;97990.22;;;24.81;39.92
27144;BME280;14672;50.250;8.312;2023-04-22T12:24:02;97980.97;;;24.90;39.75
27144;BME280;14672;50.250;8.312;2023-04-22T12:26:35;97988.53;;;25.08;40.19
27144;BME280;14672;50.250;8.312;2023-04-22T12:29:04;97979.81;;;24.93;40.32
27144;BME280;14672;50.250;8.312;2023-04-22T12:31:32;97974.78;;;24.86;39.43
27144;BME280;14672;50.250;8.312;2023-04-22T12:33:57;97985.94;;;24.67;39.51
27144;BME280;14672;50.250;8.312;2023-04-22T12:36:24;97981.53;;;24.89;38.55
27144;BME280;14672;50.250;8.312;2023-04-22T12:38:50;97977.06;;;24.80;38.96
27144;BME280;14672;50.250;8.312;2023-04-22T12:41:16;97985.63;;;25.08;40.14
27144;BME280;14672;50.250;8.312;2023-04-22T12:43:42;97970.13;;;24.98;39.81
27144;BME280;14672;50.250;8.312;2023-04-22T12:46:08;97980.19;;;24.90;39.82
27144;BME280;14672;50.250;8.312;2023-04-22T12:48:35;97969.34;;;24.90;39.95
27144;BME280;14672;50.250;8.312;2023-04-22T12:51:05;97978.22;;;24.77;40.71
27144;BME280;14672;50.250;8.312;2023-04-22T12:53:31;97975.28;;;24.69;39.38
27144;BME280;14672;50.250;8.312;2023-04-22T12:55:57;97980.31;;;24.69;39.17
27144;BME280;14672;50.250;8.312;2023-04-22T12:58:24;97973.91;;;24.55;39.28
27144;BME280;14672;50.250;8.312;2023-04-22T13:00:50;97976.38;;;24.36;39.66
27144;BME280;14672;50.250;8.312;2023-04-22T13:03:16;97985.72;;;24.14;39.37
27144;BME280;14672;50.250;8.312;2023-04-22T13:05:44;97985.22;;;24.23;39.38
27144;BME280;14672;50.250;8.312;2023-04-22T13:08:10;97979.56;;;24.17;39.77
27144;BME280;14672;50.250;8.312;2023-04-22T13:10:36;97989.03;;;23.82;40.14
27144;BME280;14672;50.250;8.312;2023-04-22T13:13:02;97983.66;;;23.86;39.85
27144;BME280;14672;50.250;8.312;2023-04-22T13:15:32;97978.84;;;23.89;40.41
27144;BME280;14672;50.250;8.312;2023-04-22T13:17:58;97979.44;;;23.95;40.33
27144;BME280;14672;50.250;8.312;2023-04-22T13:20:24;97984.03;;;23.82;40.94